Time;durP1;ratioP1;P1;durP2;ratioP2;P2;SDS_P1;SDS_P2;PMS_P1;PMS_P2;Temp;Humidity;BMP_temperature;BMP_pressure;BME280_temperature;BME280_humidity;BME280_pressure;Samples;Min_cycle;Max_cycle;Signal;HPM_P1;HPM_P2
2022/10/02 00:00:40;;;;;;;3.50;1.30;;;11.80;99.90;;;;;;4974137;28;20029;-78
2022/10/02 00:03:15;;;;;;;4.75;1.55;;;11.80;99.90;;;;;;4974086;28;20039;-77
2022/10/02 00:05:47;;;;;;;4.97;1.17;;;11.80;99.90;;;;;;4974107;28;20027;-77
2022/10/02 00:08:21;;;;;;;3.97;1.40;;;11.80;99.90;;;;;;4974112;28;20476;-77
2022/10/02 00:10:53;;;;;;;3.17;0.82;;;11.80;99.90;;;;;;4974075;28;20037;-77
2022/10/02 00:13:31;;;;;;;3.95;1.10;;;11.80;99.90;;;;;;4973915;28;20089;-78
2022/10/02 00:15:57;;;;;;;2.47;1.20;;;11.70;99.90;;;;;;4973733;28;20054;-78
2022/10/02 00:18:28;;;;;;;4.10;1.50;;;11.80;99.90;;;;;;4973773;28;20460;-78
2022/10/02 00:21:07;;;;;;;3.75;1.20;;;11.80;99.90;;;;;;4973445;28;20399;-78
2022/10/02 00:23:36;;;;;;;4.00;1.60;;;11.70;99.90;;;;;;4974097;28;20038;-78
2022/10/02 00:26:13;;;;;;;3.35;1.20;;;11.70;99.90;;;;;;4973759;28;20026;-78
2022/10/02 00:28:52;;;;;;;2.50;1.13;;;11.70;99.90;;;;;;4973771;28;20027;-78
2022/10/02 00:31:56;;;;;;;4.80;1.30;;;11.70;99.90;;;;;;4973515;28;20038;-78
2022/10/02 00:34:31;;;;;;;7.07;1.52;;;11.80;99.90;;;;;;4974161;28;20027;-77
2022/10/02 00:37:24;;;;;;;5.32;1.38;;;11.70;99.90;;;;;;4973870;28;20050;-77
2022/10/02 00:40:16;;;;;;;2.55;1.10;;;11.70;99.90;;;;;;4973662;28;20499;-77
2022/10/02 00:42:47;;;;;;;5.05;1.30;;;11.70;99.90;;;;;;4973538;28;20035;-77
2022/10/02 00:45:40;;;;;;;2.60;1.15;;;11.70;99.90;;;;;;4977235;28;20117;-78
2022/10/02 00:48:16;;;;;;;3.90;1.17;;;11.70;99.90;;;;;;4977884;28;20038;-78
2022/10/02 00:50:56;;;;;;;6.40;1.65;;;11.70;99.90;;;;;;4976670;28;20341;-78
2022/10/02 00:53:40;;;;;;;3.92;1.20;;;11.60;99.90;;;;;;4976817;28;20027;-78
2022/10/02 00:56:28;;;;;;;4.75;1.20;;;11.60;99.90;;;;;;4977091;28;20380;-78
2022/10/02 00:59:13;;;;;;;7.60;2.58;;;11.60;99.90;;;;;;4976954;28;20038;-77
2022/10/02 01:01:57;;;;;;;3.55;1.00;;;11.60;99.90;;;;;;4977044;28;20026;-77
2022/10/02 01:04:29;;;;;;;3.22;1.20;;;11.50;99.90;;;;;;4992175;28;20039;-77
2022/10/02 01:06:56;;;;;;;3.30;1.25;;;11.50;99.90;;;;;;4977348;28;20290;-77
2022/10/02 01:09:23;;;;;;;4.35;1.30;;;11.50;99.90;;;;;;4977114;28;20025;-77
2022/10/02 01:11:49;;;;;;;5.80;1.42;;;11.50;99.90;;;;;;4977298;28;20027;-77
2022/10/02 01:14:14;;;;;;;4.90;1.13;;;11.50;99.90;;;;;;4977180;28;20761;-77
2022/10/02 01:16:43;;;;;;;3.90;1.17;;;11.50;99.90;;;;;;4976920;28;20415;-77
2022/10/02 01:19:27;;;;;;;5.18;1.35;;;11.50;99.90;;;;;;4976953;28;20059;-77
2022/10/02 01:22:02;;;;;;;9.82;1.42;;;11.40;99.90;;;;;;4976822;28;20027;-77
2022/10/02 01:24:42;;;;;;;3.92;1.50;;;11.40;99.90;;;;;;4976730;28;20384;-77
2022/10/02 01:27:08;;;;;;;8.13;2.10;;;11.40;99.90;;;;;;4976399;28;20038;-77
2022/10/02 01:29:33;;;;;;;7.72;1.38;;;11.40;99.90;;;;;;4976340;28;20043;-77
2022/10/02 01:31:59;;;;;;;6.70;1.50;;;11.40;99.90;;;;;;4985472;28;20026;-77
2022/10/02 01:34:26;;;;;;;6.03;1.90;;;11.40;99.90;;;;;;4996135;28;20034;-78
2022/10/02 01:36:52;;;;;;;6.55;1.92;;;11.30;99.90;;;;;;4996198;28;20030;-78
2022/10/02 01:39:17;;;;;;;3.47;1.33;;;11.30;99.90;;;;;;4996115;28;20101;-78
2022/10/02 01:41:44;;;;;;;6.38;1.40;;;11.30;99.90;;;;;;5011064;28;20133;-78
2022/10/02 01:44:10;;;;;;;4.50;1.48;;;11.40;99.90;;;;;;4996029;28;20026;-78
2022/10/02 01:47:01;;;;;;;7.03;2.00;;;11.40;99.90;;;;;;4995893;28;20022;-78
2022/10/02 01:49:58;;;;;;;5.45;1.70;;;11.40;99.90;;;;;;4995787;28;20045;-78
2022/10/02 01:52:48;;;;;;;3.65;1.15;;;11.40;99.90;;;;;;4988536;28;20030;-78
2022/10/02 01:55:24;;;;;;;3.67;1.17;;;11.40;99.90;;;;;;5010257;28;20427;-78
2022/10/02 01:58:18;;;;;;;4.70;1.42;;;11.30;99.90;;;;;;4995873;28;20022;-78
2022/10/02 02:01:03;;;;;;;4.85;1.30;;;11.30;99.90;;;;;;4995728;28;20038;-78
2022/10/02 02:03:34;;;;;;;9.18;1.55;;;11.40;99.90;;;;;;4995758;28;20026;-78
2022/10/02 02:06:14;;;;;;;4.32;1.17;;;11.30;99.90;;;;;;4995720;28;20033;-78
2022/10/02 02:08:57;;;;;;;3.42;1.02;;;11.30;99.90;;;;;;4995658;28;20472;-78
2022/10/02 02:11:22;;;;;;;3.20;1.20;;;11.30;99.90;;;;;;4995815;28;20483;-78
2022/10/02 02:13:57;;;;;;;6.40;1.40;;;11.30;99.90;;;;;;4994337;28;20027;-78
2022/10/02 02:16:40;;;;;;;7.15;1.52;;;11.30;99.90;;;;;;4995584;28;20027;-78
2022/10/02 02:19:16;;;;;;;4.97;1.50;;;11.40;99.90;;;;;;4995517;28;20120;-78
2022/10/02 02:21:47;;;;;;;6.72;1.30;;;11.40;99.90;;;;;;4995611;28;20034;-78
2022/10/02 02:24:21;;;;;;;5.30;1.83;;;11.40;99.90;;;;;;4995464;28;20034;-78
2022/10/02 02:26:48;;;;;;;4.35;1.42;;;11.40;99.90;;;;;;4995482;28;20023;-78
2022/10/02 02:29:17;;;;;;;4.15;1.05;;;11.40;99.90;;;;;;4995344;28;20042;-78
2022/10/02 02:31:54;;;;;;;3.25;1.17;;;11.40;99.90;;;;;;4995488;28;20022;-78
2022/10/02 02:34:38;;;;;;;7.47;1.65;;;11.50;99.90;;;;;;4975975;28;20027;-78
2022/10/02 02:37:08;;;;;;;5.20;1.30;;;11.50;99.90;;;;;;4976017;28;20046;-78
2022/10/02 02:39:44;;;;;;;6.43;1.20;;;11.50;99.90;;;;;;4975913;28;20149;-78
2022/10/02 02:42:13;;;;;;;4.82;1.38;;;11.50;99.90;;;;;;4975640;28;20019;-78
2022/10/02 02:44:47;;;;;;;5.88;1.63;;;11.50;99.90;;;;;;4975503;28;20030;-78
2022/10/02 02:47:21;;;;;;;5.32;1.50;;;11.50;99.90;;;;;;4975697;28;20029;-78
2022/10/02 02:49:58;;;;;;;7.10;1.35;;;11.50;99.90;;;;;;4975524;28;20444;-78
2022/10/02 02:52:32;;;;;;;4.05;1.27;;;11.50;99.90;;;;;;4975385;28;20468;-78
2022/10/02 02:55:18;;;;;;;9.07;1.50;;;11.60;99.90;;;;;;4975617;28;20027;-78
2022/10/02 02:58:04;;;;;;;5.43;1.52;;;11.60;99.90;;;;;;4975420;28;20102;-78
2022/10/02 03:00:29;;;;;;;4.70;1.30;;;11.60;99.90;;;;;;4974914;28;20046;-78
2022/10/02 03:02:55;;;;;;;6.22;1.55;;;11.60;99.90;;;;;;4975367;28;20111;-78
2022/10/02 03:05:23;;;;;;;5.38;1.30;;;11.60;99.90;;;;;;4975175;28;20031;-78
2022/10/02 03:07:58;;;;;;;6.10;1.73;;;11.70;99.90;;;;;;4975252;28;20094;-78
2022/10/02 03:10:51;;;;;;;8.23;1.50;;;11.70;99.90;;;;;;4975066;28;20066;-78
2022/10/02 03:13:28;;;;;;;8.32;2.33;;;11.70;99.90;;;;;;4975098;28;20019;-78
2022/10/02 03:16:05;;;;;;;9.70;1.40;;;11.70;99.90;;;;;;4974942;28;20031;-78
2022/10/02 03:18:50;;;;;;;5.25;1.35;;;11.70;99.90;;;;;;4975183;28;20049;-78
2022/10/02 03:21:24;;;;;;;10.57;2.38;;;11.70;99.90;;;;;;4974939;28;20027;-78
2022/10/02 03:23:58;;;;;;;8.30;1.30;;;11.70;99.90;;;;;;4975006;28;20121;-78
2022/10/02 03:26:30;;;;;;;6.18;1.40;;;11.80;99.90;;;;;;4974953;28;20468;-78
2022/10/02 03:29:00;;;;;;;7.32;1.92;;;11.90;99.90;;;;;;4974695;28;20019;-78
2022/10/02 03:31:29;;;;;;;5.40;1.48;;;11.80;99.90;;;;;;4975117;28;20365;-78
2022/10/02 03:33:57;;;;;;;11.05;2.25;;;11.80;99.90;;;;;;4974980;28;20468;-77
2022/10/02 03:36:24;;;;;;;7.47;1.58;;;11.80;99.90;;;;;;4974672;28;20515;-78
2022/10/02 03:38:53;;;;;;;4.00;1.13;;;11.80;99.90;;;;;;4974818;28;20417;-78
2022/10/02 03:41:18;;;;;;;5.20;1.83;;;11.80;99.90;;;;;;4975164;28;20023;-78
2022/10/02 03:43:44;;;;;;;7.20;1.55;;;11.80;99.90;;;;;;4974971;28;20360;-78
2022/10/02 03:46:10;;;;;;;3.35;1.27;;;11.80;99.90;;;;;;4974642;28;20416;-78
2022/10/02 03:48:36;;;;;;;3.85;1.17;;;11.80;99.90;;;;;;4974754;28;20355;-78
2022/10/02 03:51:02;;;;;;;4.05;1.10;;;11.80;99.90;;;;;;4974546;28;20098;-78
2022/10/02 03:53:33;;;;;;;6.85;1.50;;;11.80;99.90;;;;;;4974686;28;20340;-78
2022/10/02 03:56:31;;;;;;;4.38;1.77;;;11.80;99.90;;;;;;4974934;28;20037;-78
2022/10/02 03:59:00;;;;;;;6.78;1.40;;;11.80;99.90;;;;;;4973923;28;20035;-78
2022/10/02 04:01:31;;;;;;;5.28;1.48;;;11.80;99.90;;;;;;4974740;28;20037;-78
2022/10/02 04:04:04;;;;;;;5.90;1.55;;;11.80;99.90;;;;;;4974715;28;20035;-78
2022/10/02 04:06:55;;;;;;;8.07;1.60;;;11.80;99.90;;;;;;4974352;28;20022;-78
2022/10/02 04:09:28;;;;;;;7.70;1.95;;;11.80;99.90;;;;;;4974443;28;20023;-78
2022/10/02 04:12:00;;;;;;;5.97;1.83;;;11.80;99.90;;;;;;4974286;28;20037;-78
2022/10/02 04:14:39;;;;;;;5.50;1.60;;;11.80;99.90;;;;;;4974033;28;20118;-78
2022/10/02 04:17:10;;;;;;;3.53;1.50;;;11.80;99.90;;;;;;4974108;28;20054;-78
2022/10/02 04:19:47;;;;;;;5.15;1.63;;;11.80;99.90;;;;;;4973500;28;20400;-78
2022/10/02 04:22:36;;;;;;;5.85;1.92;;;11.80;99.90;;;;;;4974250;28;20023;-78
2022/10/02 04:25:32;;;;;;;7.15;1.77;;;11.80;99.90;;;;;;4972962;28;20436;-78
2022/10/02 04:28:12;;;;;;;10.25;1.60;;;11.70;99.90;;;;;;4973195;28;20447;-78
2022/10/02 04:30:38;;;;;;;4.75;1.60;;;11.70;99.90;;;;;;4973595;28;20130;-77
2022/10/02 04:33:12;;;;;;;6.45;1.90;;;11.70;99.90;;;;;;4977671;28;20063;-78
2022/10/02 04:35:50;;;;;;;4.95;1.63;;;11.70;99.90;;;;;;4973684;28;20030;-78
2022/10/02 04:38:58;;;;;;;6.78;1.40;;;11.70;99.90;;;;;;4973491;28;20038;-78
2022/10/02 04:41:42;;;;;;;7.63;1.80;;;11.70;99.90;;;;;;4988301;28;20652;-78
2022/10/02 04:44:10;;;;;;;5.78;1.30;;;11.70;99.90;;;;;;4973041;28;20039;-81
2022/10/02 04:47:02;;;;;;;6.72;1.48;;;11.70;99.90;;;;;;4973324;28;20030;-82
2022/10/02 04:49:54;;;;;;;7.13;1.63;;;11.70;99.90;;;;;;4973187;28;20046;-82
2022/10/02 04:52:50;;;;;;;4.05;1.30;;;11.70;99.90;;;;;;4973563;28;20027;-81
2022/10/02 04:55:31;;;;;;;;;;;11.70;99.90;;;;;;4974068;28;20031;-81
2022/10/02 04:58:29;;;;;;;4.47;1.35;;;11.70;99.90;;;;;;4973432;28;19910;-81
2022/10/02 05:01:17;;;;;;;4.68;1.48;;;11.70;99.90;;;;;;4973468;28;20030;-82
2022/10/02 05:04:08;;;;;;;5.50;1.50;;;11.70;99.90;;;;;;4973202;28;20031;-81
2022/10/02 05:07:18;;;;;;;4.50;1.40;;;11.70;99.90;;;;;;4973067;28;20174;-82
2022/10/02 05:09:57;;;;;;;5.07;1.52;;;11.70;99.90;;;;;;4967685;28;20038;-78
2022/10/02 05:12:49;;;;;;;8.38;1.50;;;11.60;99.90;;;;;;4973896;28;20027;-78
2022/10/02 05:15:25;;;;;;;5.38;1.85;;;11.70;99.90;;;;;;4973776;28;20065;-78
2022/10/02 05:18:18;;;;;;;5.70;1.65;;;11.70;99.90;;;;;;4974036;28;20109;-78
2022/10/02 05:21:10;;;;;;;4.82;1.48;;;11.70;99.90;;;;;;4973866;28;20030;-78
2022/10/02 05:23:39;;;;;;;5.30;1.38;;;11.70;99.90;;;;;;4973776;28;20042;-78
2022/10/02 05:26:26;;;;;;;6.05;1.52;;;11.70;99.90;;;;;;4973767;28;20034;-78
2022/10/02 05:29:16;;;;;;;4.43;1.40;;;11.70;99.90;;;;;;4973611;28;20027;-78
2022/10/02 05:32:18;;;;;;;4.80;1.33;;;11.80;99.90;;;;;;4978713;28;20045;-76
2022/10/02 05:34:58;;;;;;;5.15;1.52;;;11.80;99.90;;;;;;4988933;28;20042;-76
2022/10/02 05:37:40;;;;;;;5.82;1.35;;;11.80;99.90;;;;;;4994820;28;20066;-78
2022/10/02 05:40:30;;;;;;;10.43;1.73;;;11.80;99.90;;;;;;4995994;28;20031;-78
2022/10/02 05:43:14;;;;;;;5.85;1.58;;;11.90;99.90;;;;;;4996242;28;20110;-78
2022/10/02 05:45:45;;;;;;;5.95;1.77;;;12.00;99.90;;;;;;4995093;28;20042;-76
2022/10/02 05:48:29;;;;;;;7.03;1.83;;;12.00;99.90;;;;;;5010043;28;20037;-76
2022/10/02 05:51:06;;;;;;;9.18;1.88;;;12.10;99.90;;;;;;4995608;28;20048;-76
2022/10/02 05:53:56;;;;;;;5.97;1.50;;;12.10;99.90;;;;;;4995599;28;20472;-76
2022/10/02 05:56:39;;;;;;;8.05;1.95;;;12.00;99.90;;;;;;4995592;28;20026;-76
2022/10/02 05:59:55;;;;;;;3.97;1.33;;;12.00;99.90;;;;;;4995226;28;20030;-76
2022/10/02 06:02:58;;;;;;;6.05;1.88;;;12.00;99.90;;;;;;4983953;28;20042;-77
2022/10/02 06:05:55;;;;;;;7.55;1.70;;;12.00;99.90;;;;;;4995168;28;20026;-76
2022/10/02 06:08:45;;;;;;;5.78;1.50;;;12.10;99.90;;;;;;4998393;28;20466;-80
2022/10/02 06:11:36;;;;;;;6.38;1.50;;;12.10;99.90;;;;;;4993288;28;20030;-80
2022/10/02 06:14:01;;;;;;;8.68;2.60;;;12.10;99.90;;;;;;4996198;28;20069;-81
2022/10/02 06:16:38;;;;;;;4.55;1.55;;;12.00;99.90;;;;;;4995872;28;20467;-81
2022/10/02 06:19:18;;;;;;;7.20;2.03;;;12.10;99.90;;;;;;4996001;28;20019;-81
2022/10/02 06:21:55;;;;;;;4.30;1.55;;;12.20;99.90;;;;;;4995857;28;20030;-81
2022/10/02 06:24:27;;;;;;;5.75;1.88;;;12.10;99.90;;;;;;4995746;28;20027;-81
2022/10/02 06:27:07;;;;;;;8.05;2.28;;;12.10;99.90;;;;;;4993422;28;20022;-76
2022/10/02 06:29:41;;;;;;;6.57;1.60;;;12.10;99.90;;;;;;4993105;28;20104;-77
2022/10/02 06:32:28;;;;;;;6.40;1.90;;;12.10;99.90;;;;;;4987021;28;20105;-76
2022/10/02 06:34:53;;;;;;;6.90;1.60;;;12.10;99.90;;;;;;4976996;28;20023;-76
2022/10/02 06:37:35;;;;;;;7.65;2.13;;;12.10;99.90;;;;;;4973537;28;20113;-76
2022/10/02 06:40:15;;;;;;;7.47;1.90;;;12.10;99.90;;;;;;4973439;28;20027;-76
2022/10/02 06:43:10;;;;;;;7.70;2.30;;;12.10;99.90;;;;;;4973571;28;20045;-76
2022/10/02 06:45:57;;;;;;;8.88;1.90;;;12.00;99.90;;;;;;4988273;28;20391;-76
2022/10/02 06:48:41;;;;;;;8.25;1.83;;;12.10;99.90;;;;;;4973556;28;20057;-76
2022/10/02 06:51:19;;;;;;;7.65;1.95;;;12.00;99.90;;;;;;4973418;28;20031;-76
2022/10/02 06:54:07;;;;;;;9.07;2.25;;;12.00;99.90;;;;;;4973524;28;20027;-76
2022/10/02 06:56:51;;;;;;;5.32;1.75;;;12.00;99.90;;;;;;4973583;28;20027;-76
2022/10/02 06:59:38;;;;;;;8.07;2.78;;;12.00;99.90;;;;;;4973170;28;20019;-76
2022/10/02 07:02:44;;;;;;;10.25;2.05;;;12.00;99.90;;;;;;4973065;28;20081;-76
2022/10/02 07:05:28;;;;;;;;;;;12.00;99.90;;;;;;4972037;28;20039;-76
2022/10/02 07:08:10;;;;;;;11.73;2.63;;;12.00;99.90;;;;;;4972796;28;19918;-77
2022/10/02 07:10:43;;;;;;;5.95;2.42;;;12.10;99.90;;;;;;4972817;28;20069;-77
2022/10/02 07:13:34;;;;;;;6.25;2.38;;;12.10;99.90;;;;;;4972520;28;20041;-76
2022/10/02 07:16:18;;;;;;;9.15;2.22;;;12.10;99.90;;;;;;4972866;28;20030;-76
2022/10/02 07:19:09;;;;;;;9.35;2.30;;;12.20;99.90;;;;;;4987633;28;20105;-77
2022/10/02 07:21:51;;;;;;;8.85;2.00;;;12.20;99.90;;;;;;4972668;28;20038;-77
2022/10/02 07:24:53;;;;;;;7.82;1.98;;;12.30;99.90;;;;;;4974719;28;20480;-76
2022/10/02 07:27:43;;;;;;;8.90;1.95;;;12.30;99.90;;;;;;4974824;28;20030;-76
2022/10/02 07:30:12;;;;;;;6.38;1.85;;;12.20;99.90;;;;;;4974807;28;20039;-76
2022/10/02 07:32:54;;;;;;;6.90;2.03;;;12.20;99.90;;;;;;4989302;28;20022;-75
2022/10/02 07:35:36;;;;;;;9.50;1.88;;;12.30;99.90;;;;;;4994024;28;20030;-79
2022/10/02 07:38:44;;;;;;;6.40;2.03;;;12.30;99.90;;;;;;4993820;28;20478;-76
2022/10/02 07:41:47;;;;;;;6.15;2.00;;;12.30;99.90;;;;;;4994063;28;20054;-77
2022/10/02 07:44:35;;;;;;;5.47;1.92;;;12.40;99.90;;;;;;4982952;28;20046;-76
2022/10/02 07:47:08;;;;;;;5.68;1.50;;;12.40;99.90;;;;;;5000248;28;20041;-81
2022/10/02 07:49:52;;;;;;;5.28;2.22;;;12.40;99.90;;;;;;4994314;28;20093;-81
2022/10/02 07:52:30;;;;;;;5.97;1.77;;;12.50;99.90;;;;;;4994516;28;20027;-81
2022/10/02 07:55:21;;;;;;;6.75;1.98;;;12.60;99.90;;;;;;4994309;28;20038;-81
2022/10/02 07:58:15;;;;;;;7.65;2.15;;;12.60;99.90;;;;;;4994229;28;20379;-81
2022/10/02 08:00:51;;;;;;;7.40;2.00;;;12.60;99.90;;;;;;4994062;28;20073;-75
2022/10/02 08:03:23;;;;;;;8.55;2.22;;;12.70;99.90;;;;;;4993507;28;20018;-75
2022/10/02 08:05:52;;;;;;;6.55;2.00;;;12.70;99.90;;;;;;4993577;28;20033;-75
2022/10/02 08:08:38;;;;;;;6.68;1.75;;;12.70;99.90;;;;;;4993719;28;20019;-76
2022/10/02 08:11:17;;;;;;;7.05;1.85;;;12.80;99.90;;;;;;4993799;28;20029;-75
2022/10/02 08:13:54;;;;;;;6.07;1.98;;;12.80;99.90;;;;;;4993844;28;20430;-75
2022/10/02 08:16:23;;;;;;;8.13;2.55;;;12.80;99.90;;;;;;4993555;28;20031;-76
2022/10/02 08:18:58;;;;;;;5.10;2.00;;;12.80;99.90;;;;;;4990124;28;20483;-76
2022/10/02 08:21:25;;;;;;;9.73;2.65;;;12.90;99.90;;;;;;4976585;28;20055;-76
2022/10/02 08:24:05;;;;;;;6.68;1.80;;;13.00;99.90;;;;;;4996171;28;20022;-76
2022/10/02 08:26:41;;;;;;;7.38;2.30;;;13.00;99.90;;;;;;4996995;28;20034;-76
2022/10/02 08:29:08;;;;;;;8.40;1.80;;;13.00;99.90;;;;;;4995969;28;20042;-76
2022/10/02 08:31:34;;;;;;;4.47;1.50;;;13.00;99.90;;;;;;4999263;28;20034;-78
2022/10/02 08:34:19;;;;;;;7.18;1.83;;;13.10;99.90;;;;;;5001828;28;20020;-80
2022/10/02 08:37:12;;;;;;;4.22;1.42;;;13.10;99.90;;;;;;5000554;28;20072;-81
2022/10/02 08:39:52;;;;;;;8.32;2.30;;;13.00;99.90;;;;;;4994880;28;20338;-81
2022/10/02 08:42:55;;;;;;;4.70;1.83;;;13.10;99.90;;;;;;5000088;28;20026;-80
2022/10/02 08:45:40;;;;;;;5.88;1.50;;;13.10;99.90;;;;;;5000027;28;20026;-81
2022/10/02 08:48:30;;;;;;;6.70;1.88;;;13.10;99.90;;;;;;5002102;28;20041;-80
2022/10/02 08:51:34;;;;;;;7.03;1.95;;;13.10;99.90;;;;;;5002813;28;20036;-81
2022/10/02 08:54:18;;;;;;;6.28;2.13;;;13.10;99.90;;;;;;4997674;28;20053;-80
2022/10/02 08:56:50;;;;;;;5.30;1.65;;;13.10;99.90;;;;;;4997527;28;20034;-80
2022/10/02 09:00:00;;;;;;;8.27;2.30;;;13.20;99.90;;;;;;5004364;28;20030;-80
2022/10/02 09:02:50;;;;;;;5.28;1.98;;;13.20;99.90;;;;;;4999691;28;20045;-81
2022/10/02 09:05:41;;;;;;;6.00;2.20;;;13.30;99.90;;;;;;5000480;28;20034;-80
2022/10/02 09:08:22;;;;;;;5.85;2.05;;;13.40;99.90;;;;;;4992752;28;20030;-81
2022/10/02 09:11:25;;;;;;;5.47;1.80;;;13.50;99.90;;;;;;4996896;28;20045;-80
2022/10/02 09:14:28;;;;;;;5.25;2.15;;;13.50;99.90;;;;;;5013524;28;20022;-80
2022/10/02 09:17:02;;;;;;;6.00;2.40;;;13.60;99.90;;;;;;5013654;28;20034;-80
2022/10/02 09:19:47;;;;;;;5.75;2.15;;;13.70;99.90;;;;;;5013631;28;20036;-80
2022/10/02 09:22:25;;;;;;;8.77;2.92;;;13.80;99.90;;;;;;5013408;28;20029;-80
2022/10/02 09:25:00;;;;;;;10.05;3.40;;;13.90;99.90;;;;;;5013383;28;20490;-80
2022/10/02 09:28:03;;;;;;;8.27;3.50;;;14.00;99.90;;;;;;5013644;28;20030;-79
2022/10/02 09:31:02;;;;;;;7.47;2.40;;;14.10;99.90;;;;;;4992534;28;20133;-81
2022/10/02 09:34:05;;;;;;;11.20;2.83;;;14.20;99.90;;;;;;4982930;28;20039;-81
2022/10/02 09:37:15;;;;;;;11.02;2.20;;;14.30;99.90;;;;;;4976052;28;20029;-84
2022/10/02 09:40:17;;;;;;;5.43;2.40;;;14.40;99.90;;;;;;4976315;28;20029;-83
2022/10/02 09:43:14;;;;;;;4.88;2.03;;;14.40;99.90;;;;;;4976140;28;20065;-82
2022/10/02 09:45:57;;;;;;;5.15;1.77;;;14.40;99.90;;;;;;4976296;28;20055;-82
2022/10/02 09:48:58;;;;;;;7.40;2.10;;;14.40;99.90;;;;;;4975599;28;20027;-80
2022/10/02 09:51:45;;;;;;;6.95;1.70;;;14.40;99.90;;;;;;4975431;28;20023;-85
2022/10/02 09:54:58;;;;;;;7.95;1.77;;;14.50;99.90;;;;;;4975770;28;20022;-81
2022/10/02 09:57:42;;;;;;;4.53;1.80;;;14.50;99.90;;;;;;4974699;28;20384;-80
2022/10/02 10:00:24;;;;;;;10.05;2.13;;;14.50;99.90;;;;;;4974811;28;20019;-80
2022/10/02 10:03:02;;;;;;;6.35;2.13;;;14.60;99.90;;;;;;4974149;28;20424;-80
2022/10/02 10:05:52;;;;;;;7.57;1.85;;;14.70;99.90;;;;;;4972850;28;20026;-80
2022/10/02 10:08:36;;;;;;;6.13;1.83;;;14.80;99.90;;;;;;4972914;28;20026;-80
2022/10/02 10:11:09;;;;;;;3.28;1.70;;;14.90;99.90;;;;;;4973237;28;20139;-81
2022/10/02 10:13:53;;;;;;;4.53;1.55;;;15.00;99.90;;;;;;4983016;28;20026;-81
2022/10/02 10:16:55;;;;;;;4.70;1.75;;;15.10;99.90;;;;;;4981531;28;20031;-80
2022/10/02 10:19:49;;;;;;;6.13;1.60;;;15.20;99.90;;;;;;4981978;28;20031;-80
2022/10/02 10:22:31;;;;;;;3.50;1.30;;;15.40;99.90;;;;;;4984484;28;20034;-81
2022/10/02 10:25:27;;;;;;;3.00;1.20;;;15.60;99.90;;;;;;4972906;28;20374;-80
2022/10/02 10:28:01;;;;;;;3.40;1.25;;;15.80;99.90;;;;;;4972255;28;20124;-80
2022/10/02 10:31:00;;;;;;;1.58;1.02;;;16.00;99.90;;;;;;4972416;28;20046;-80
2022/10/02 10:33:42;;;;;;;1.52;1.00;;;16.10;99.90;;;;;;4983668;28;20048;-80
2022/10/02 10:39:57;;;;;;;2.17;1.00;;;16.40;99.90;;;;;;4973596;28;20053;-78
2022/10/02 10:42:55;;;;;;;2.38;0.73;;;16.40;99.90;;;;;;4973659;28;20058;-77
2022/10/02 10:45:49;;;;;;;2.72;1.00;;;16.50;99.90;;;;;;4973101;28;20030;-78
2022/10/02 10:48:44;;;;;;;2.05;0.90;;;16.50;99.90;;;;;;4973818;28;20128;-77
2022/10/02 10:51:29;;;;;;;2.83;0.80;;;16.60;99.90;;;;;;4971762;28;20067;-77
2022/10/02 10:54:29;;;;;;;3.67;0.98;;;16.80;99.90;;;;;;4973219;28;20022;-77
2022/10/02 10:57:25;;;;;;;3.08;1.00;;;16.90;99.90;;;;;;4972858;28;20118;-77
2022/10/02 11:00:14;;;;;;;1.40;0.70;;;17.10;99.90;;;;;;4973201;28;20456;-77
2022/10/02 11:03:25;;;;;;;1.13;0.88;;;17.30;99.90;;;;;;4972755;28;20081;-77
2022/10/02 11:06:24;;;;;;;1.10;0.80;;;17.30;99.90;;;;;;4972481;28;20392;-78
2022/10/02 11:09:11;;;;;;;1.70;1.00;;;17.40;99.90;;;;;;4981647;28;20524;-78
2022/10/02 11:12:20;;;;;;;2.05;0.90;;;17.50;99.90;;;;;;5014272;28;20026;-77
2022/10/02 11:15:13;;;;;;;2.05;0.75;;;17.60;99.90;;;;;;4979304;28;20023;-77
2022/10/02 11:18:14;;;;;;;0.70;0.68;;;17.70;99.90;;;;;;4980981;28;20030;-77
2022/10/02 11:21:01;;;;;;;1.48;0.93;;;17.80;99.90;;;;;;4998971;28;20029;-77
2022/10/02 11:23:46;;;;;;;0.63;0.60;;;17.90;99.90;;;;;;4998374;28;20502;-77
2022/10/02 11:26:14;;;;;;;;;;;18.00;99.90;;;;;;4999501;28;20471;-77
2022/10/02 11:29:33;;;;;;;2.45;1.10;;;18.10;99.90;;;;;;5001707;28;20277;-77
2022/10/02 11:32:26;;;;;;;1.02;0.70;;;18.10;99.90;;;;;;4989537;28;20082;-77
2022/10/02 11:35:18;;;;;;;1.17;0.77;;;18.10;99.90;;;;;;5010519;28;20033;-77
2022/10/02 11:38:02;;;;;;;2.60;0.90;;;18.40;99.90;;;;;;5012814;28;20036;-77
2022/10/02 11:40:47;;;;;;;1.20;0.73;;;18.50;99.90;;;;;;5012887;28;20026;-77
2022/10/02 11:43:18;;;;;;;1.80;0.52;;;18.70;99.90;;;;;;5012644;28;20040;-77
2022/10/02 11:46:11;;;;;;;1.15;0.80;;;18.90;99.90;;;;;;5012305;28;20033;-74
2022/10/02 11:48:42;;;;;;;0.50;0.50;;;18.90;99.90;;;;;;5010812;28;20029;-71
2022/10/02 11:51:37;;;;;;;2.67;0.77;;;19.00;99.90;;;;;;5010583;28;20096;-72
2022/10/02 11:54:47;;;;;;;1.07;0.63;;;19.00;99.90;;;;;;5001741;28;20042;-72
2022/10/02 11:57:13;;;;;;;1.92;0.60;;;19.00;99.90;;;;;;5010891;28;20030;-73
2022/10/02 12:00:04;;;;;;;0.75;0.70;;;19.10;99.90;;;;;;5010687;28;20815;-73
2022/10/02 12:02:40;;;;;;;0.77;0.68;;;19.10;99.90;;;;;;5006744;28;20022;-75
2022/10/02 12:05:44;;;;;;;0.80;0.60;;;18.90;99.90;;;;;;4991204;28;20034;-72
2022/10/02 12:08:23;;;;;;;1.08;0.60;;;18.70;99.90;;;;;;4990887;28;20034;-72
2022/10/02 12:10:55;;;;;;;0.90;0.77;;;18.60;99.90;;;;;;4990797;28;20019;-72
2022/10/02 12:13:41;;;;;;;1.67;0.60;;;18.60;99.90;;;;;;4990607;28;20030;-74
2022/10/02 12:16:21;;;;;;;1.67;0.80;;;18.60;99.90;;;;;;4991890;28;20084;-74
2022/10/02 12:19:09;;;;;;;2.58;0.80;;;18.60;99.90;;;;;;4993170;28;20407;-74
2022/10/02 12:26:57;;;;;;;3.80;1.02;;;18.90;99.90;;;;;;4992613;28;20423;-75
2022/10/02 12:27:50;;;;;;;1.25;0.57;;;19.40;99.90;;;;;;4992791;28;20396;-75
2022/10/02 12:30:19;;;;;;;2.05;0.70;;;19.90;99.90;;;;;;4992653;28;20094;-75
2022/10/02 12:33:06;;;;;;;0.52;0.47;;;20.30;99.90;;;;;;4992441;28;20125;-75
2022/10/02 12:35:48;;;;;;;0.50;0.50;;;20.40;99.90;;;;;;4973180;28;20034;-75
2022/10/02 12:38:30;;;;;;;2.10;1.55;;;20.40;99.90;;;;;;4973320;28;20476;-75
2022/10/02 12:41:20;;;;;;;0.98;0.60;;;20.20;99.90;;;;;;4977122;28;20379;-74
2022/10/02 12:43:53;;;;;;;2.20;0.70;;;20.10;99.90;;;;;;4977410;28;20062;-75
2022/10/02 12:46:39;;;;;;;2.35;0.70;;;19.90;99.90;;;;;;4976935;28;20361;-74
2022/10/02 12:49:44;;;;;;;0.63;0.60;;;19.80;99.90;;;;;;4977322;28;20027;-75
2022/10/02 12:52:57;;;;;;;1.53;0.60;;;19.90;99.90;;;;;;4977063;28;20073;-75
2022/10/02 12:55:44;;;;;;;2.75;0.60;;;20.10;99.90;;;;;;4974552;28;20050;-75
2022/10/02 12:58:55;;;;;;;0.82;0.70;;;20.10;99.90;;;;;;4976859;28;20030;-75
2022/10/02 13:01:56;;;;;;;1.33;0.60;;;20.00;99.90;;;;;;4975948;28;20035;-75
2022/10/02 13:04:41;;;;;;;1.95;0.80;;;19.80;99.90;;;;;;4976837;28;20035;-75
2022/10/02 13:07:30;;;;;;;1.58;0.60;;;19.80;99.90;;;;;;4975564;28;20037;-78
2022/10/02 13:10:20;;;;;;;0.65;0.55;;;19.80;99.90;;;;;;4974759;28;20031;-78
2022/10/02 13:13:01;;;;;;;1.67;0.50;;;19.60;99.90;;;;;;4974783;28;20062;-78
2022/10/02 13:15:32;;;;;;;1.02;0.85;;;19.40;99.90;;;;;;4974584;28;20023;-79
2022/10/02 13:18:37;;;;;;;6.63;1.58;;;19.10;99.90;;;;;;4974780;28;20061;-79
2022/10/02 13:21:36;;;;;;;4.43;2.00;;;18.90;99.90;;;;;;4974750;28;20023;-79
2022/10/02 13:24:26;;;;;;;4.28;1.90;;;18.30;99.90;;;;;;4974635;28;20097;-78
2022/10/02 13:26:58;;;;;;;5.43;2.00;;;17.60;99.90;;;;;;4974595;28;20138;-79
2022/10/02 13:29:51;;;;;;;15.20;3.15;;;16.90;99.90;;;;;;4974116;28;20500;-78
2022/10/02 13:32:51;;;;;;;4.00;1.70;;;16.30;99.90;;;;;;4979196;28;20062;-78
2022/10/02 13:35:44;;;;;;;8.43;2.00;;;15.70;99.90;;;;;;4993555;28;20037;-78
2022/10/02 13:38:31;;;;;;;3.25;1.50;;;15.20;99.90;;;;;;4993961;28;20062;-79
2022/10/02 13:41:35;;;;;;;6.10;2.00;;;14.80;99.90;;;;;;4993683;28;20049;-77
2022/10/02 13:44:17;;;;;;;5.35;2.35;;;14.50;99.90;;;;;;4991820;28;20049;-78
2022/10/02 13:47:03;;;;;;;3.85;3.10;;;14.20;99.90;;;;;;4993448;28;20030;-77
2022/10/02 13:49:45;;;;;;;4.07;2.45;;;14.00;99.90;;;;;;4993571;28;20105;-77
2022/10/02 13:52:32;;;;;;;3.75;2.25;;;13.80;99.90;;;;;;4992540;28;20034;-77
2022/10/02 13:55:19;;;;;;;5.95;2.60;;;13.70;99.90;;;;;;4993380;28;20088;-77
2022/10/02 13:58:14;;;;;;;2.88;2.13;;;13.50;99.90;;;;;;4993627;28;20034;-77
2022/10/02 14:00:49;;;;;;;2.93;1.80;;;13.50;99.90;;;;;;4993632;28;20109;-77
2022/10/02 14:03:53;;;;;;;3.95;1.85;;;13.40;99.90;;;;;;4993647;28;20372;-77
2022/10/02 14:06:25;;;;;;;2.63;1.50;;;13.40;99.90;;;;;;4993220;28;20468;-77
2022/10/02 14:09:25;;;;;;;2.80;1.75;;;13.30;99.90;;;;;;4993171;28;20487;-77
2022/10/02 14:12:19;;;;;;;2.45;1.73;;;13.20;99.90;;;;;;4993291;28;20036;-74
2022/10/02 14:15:23;;;;;;;2.50;1.60;;;13.20;99.90;;;;;;4993081;28;20030;-73
2022/10/02 14:18:28;;;;;;;2.15;1.30;;;13.20;99.90;;;;;;4992872;28;20088;-74